»·PEaware :: N74WR KOLM-CYYJ

N74WR :: KOLM-CYYJ

FLIGHT INFORMATION

Flight Status: Arrived
Operator: Privately registered:
United States
More flights under this callsign
Pilot: Wayne R. (17783)
Aircraft: DEHAVILLAND DH-2 BEAVER
(DHC2)
More flights by this aircraft type
Origin: KOLM Olympia
United States
Destination: CYYJ Victoria Intl
Canada
More flights between these airports :: More routes between these airports
Route:
File this flight plan on PilotEdge
Remarks:
Altitude:
(Current/Filed)
4,500ft
Speed:
(Current/Filed)
125kts
Departed: 02-Jan-21 07:53 PM
Arrived: 02-Jan-21 08:48 PM
Distance/Time
Traveled:
103nm/0:55
Distance/Time
To Go:
Arrived

Flight Plot

Page will automatically refresh every two minutes.

Flight plan parsing failed; only flown route is shown


Map Options




Map Legend


Flown Route
Filed Route
Departure Airport
Arrival Airport
Navaid (VOR, NDB)
Fix

Horizontal Profiles

Position Reports

Time Latitude Longitude Heading Altitude Ground
Speed
02-Jan-21 19:44 46.976669 -122.899770 101 195ft 0kts
02-Jan-21 19:45 46.976669 -122.899770 101 195ft 0kts
02-Jan-21 19:46 46.976669 -122.899770 101 195ft 0kts
02-Jan-21 19:47 46.976669 -122.899770 101 195ft 0kts
02-Jan-21 19:48 46.976669 -122.899770 101 195ft 0kts
02-Jan-21 19:49 46.976669 -122.899770 101 195ft 0kts
02-Jan-21 19:50 46.976223 -122.899974 264 196ft 0kts
02-Jan-21 19:51 46.976179 -122.901399 284 196ft 8kts
02-Jan-21 19:52 46.963321 -122.901837 118 528ft 83kts
02-Jan-21 19:53 46.979101 -122.878772 13 938ft 102kts
02-Jan-21 19:54 47.006166 -122.864677 26 1406ft 103kts
02-Jan-21 19:55 47.031732 -122.844069 26 1881ft 106kts
02-Jan-21 19:56 47.059160 -122.840901 315 2402ft 103kts
02-Jan-21 19:57 47.078784 -122.872184 310 3041ft 102kts
02-Jan-21 19:58 47.098254 -122.902094 319 3676ft 104kts
02-Jan-21 19:59 47.125343 -122.919436 337 4172ft 107kts
02-Jan-21 20:00 47.154617 -122.933168 345 4459ft 119kts
02-Jan-21 20:01 47.187864 -122.944698 345 4454ft 125kts
02-Jan-21 20:02 47.221698 -122.956554 345 4454ft 126kts
02-Jan-21 20:03 47.254019 -122.967979 345 4454ft 126kts
02-Jan-21 20:04 47.288152 -122.980044 345 4453ft 126kts
02-Jan-21 20:05 47.321766 -122.991889 345 4660ft 121kts
02-Jan-21 20:06 47.354478 -123.003398 345 4956ft 120kts
02-Jan-21 20:07 47.387157 -123.014880 345 5254ft 120kts
02-Jan-21 20:08 47.419480 -123.026227 345 5550ft 119kts
02-Jan-21 20:09 47.451412 -123.037382 345 5942ft 116kts
02-Jan-21 20:10 47.482592 -123.048125 345 6483ft 112kts
02-Jan-21 20:11 47.512769 -123.058422 345 7076ft 110kts
02-Jan-21 20:12 47.542382 -123.068470 345 7668ft 108kts
02-Jan-21 20:13 47.571955 -123.078493 345 8121ft 113kts
02-Jan-21 20:14 47.603286 -123.089372 345 8333ft 118kts
02-Jan-21 20:16 47.635953 -123.100821 345 8456ft 123kts
02-Jan-21 20:17 47.669941 -123.112840 345 8454ft 125kts
02-Jan-21 20:18 47.703925 -123.124872 345 8454ft 125kts
02-Jan-21 20:19 47.738021 -123.136944 345 8454ft 126kts
02-Jan-21 20:20 47.772164 -123.149032 345 8454ft 126kts
02-Jan-21 20:21 47.806197 -123.161080 345 8454ft 126kts
02-Jan-21 20:22 47.840482 -123.173217 345 8454ft 126kts
02-Jan-21 20:23 47.874528 -123.185268 346 8454ft 126kts
02-Jan-21 20:24 47.906706 -123.206100 334 8454ft 126kts
02-Jan-21 20:25 47.938482 -123.228556 334 8454ft 126kts
02-Jan-21 20:26 47.970276 -123.250665 336 8454ft 126kts
02-Jan-21 20:27 48.002673 -123.270553 337 8454ft 126kts
02-Jan-21 20:28 48.035929 -123.290980 337 8280ft 131kts
02-Jan-21 20:28 48.063977 -123.308193 337 8114ft 131kts
02-Jan-21 20:30 48.103466 -123.332439 337 7881ft 131kts
02-Jan-21 20:31 48.137404 -123.353029 339 7680ft 131kts
02-Jan-21 20:32 48.171778 -123.372088 339 7479ft 131kts
02-Jan-21 20:32 48.200663 -123.388094 339 7310ft 131kts
02-Jan-21 20:33 48.235753 -123.403800 346 7023ft 134kts
02-Jan-21 20:34 48.272357 -123.416823 346 6604ft 135kts
02-Jan-21 20:35 48.308974 -123.429900 346 6106ft 135kts
02-Jan-21 20:36 48.345757 -123.443041 346 5606ft 136kts
02-Jan-21 20:37 48.382869 -123.454176 351 5104ft 136kts
02-Jan-21 20:38 48.420486 -123.462488 351 4603ft 136kts
02-Jan-21 20:39 48.458018 -123.470783 351 4105ft 137kts
02-Jan-21 20:40 48.495802 -123.479132 351 3605ft 137kts
02-Jan-21 20:41 48.533509 -123.487463 351 3106ft 137kts
02-Jan-21 20:42 48.570657 -123.495716 351 2592ft 129kts
02-Jan-21 20:43 48.605836 -123.503549 351 2088ft 127kts
02-Jan-21 20:44 48.638426 -123.509764 358 1621ft 96kts
02-Jan-21 20:45 48.654384 -123.492097 69 801ft 75kts
02-Jan-21 20:46 48.655704 -123.461016 102 664ft 70kts
02-Jan-21 20:47 48.651140 -123.435762 113 71ft 29kts
02-Jan-21 20:48 48.648296 -123.421478 103 147ft 66kts
02-Jan-21 20:49 48.646994 -123.413835 293 77ft 0kts
02-Jan-21 20:50 48.646994 -123.413835 293 77ft 0kts
02-Jan-21 20:51 48.646994 -123.413835 293 77ft 0kts
02-Jan-21 20:52 48.646995 -123.413835 293 77ft 0kts
02-Jan-21 20:53 48.645804 -123.437178 242 394ft 80kts

Navigation Log

Ident Type
Flight plan parsing failed, navigation log unavailable